NCAR-RAP Real-Time Weather Data

Output produced by METARs form (01 December 2020  17:43 UTC)
found at http://weather.rap.ucar.edu/surface/
 
KMDT 011656Z 28021G29KT 10SM SCT042 BKN090 07/M02 A2959 RMK AO2 PK WND 27029/1652 SLP023 T00671022
KMDT 011556Z 28015G20KT 10SM FEW032 FEW095 BKN120 06/M01 A2960 RMK AO2 PK WND 26026/1521 RAB1458E24 SLP024 P0000 T00611011
KMDT 011456Z 25011G17KT 10SM FEW020 SCT030 BKN090 06/01 A2959 RMK AO2 RAE12 SLP021 P0000 60001 T00610011 51015
KMDT 011356Z 24009KT 10SM -RA BKN038 OVC055 04/01 A2958 RMK AO2 SLP017 P0000 T00440011
KMDT 011256Z 25010KT 10SM -RA BKN043 OVC050 05/01 A2956 RMK AO2 SLP013 P0001 T00500011
KMDT 011156Z 23012KT 10SM -RA FEW023 OVC039 06/01 A2954 RMK AO2 RAB23 SLP006 P0000 60000 70067 T00560011 10083 20056 53017
KMDT 011056Z 24008KT 10SM FEW027 BKN055 OVC090 07/01 A2951 RMK AO2 SLP996 T00670011
KMDT 010956Z 22009KT 10SM FEW044 BKN070 07/02 A2950 RMK AO2 SLP991 T00670017
KMDT 010856Z 23010KT 10SM BKN033 07/02 A2949 RMK AO2 SLP988 T00720017 52004
KMDT 010756Z 23007KT 10SM BKN033 07/02 A2949 RMK AO2 SLP987 T00720022
KMDT 010656Z 26006KT 10SM SCT055 SCT080 08/02 A2948 RMK AO2 SLP984 T00780017
KMDT 010556Z 26009KT 10SM BKN055 08/02 A2948 RMK AO2 SLP983 T00830017 10128 20083 50005
KMDT 010456Z 27013G20KT 10SM BKN050 BKN070 09/02 A2948 RMK AO2 SLP984 T00890022 401670061
KMDT 010356Z 27014KT 10SM BKN032 09/03 A2947 RMK AO2 SLP981 T00940028
KMDT 010256Z 27014KT 10SM BKN034 10/04 A2946 RMK AO2 SLP978 T01000039 53025